createdAt,value
2023-05-01T00:02:34.177Z,99286.06
2023-05-01T00:05:26.363Z,99282.63
2023-05-01T00:08:18.410Z,99278.91
2023-05-01T00:11:12.447Z,99276.93
2023-05-01T00:14:04.714Z,99280.73
2023-05-01T00:16:56.825Z,99280.98
2023-05-01T00:19:52.370Z,99274.25
2023-05-01T00:22:44.451Z,99270.39
2023-05-01T00:25:36.417Z,99270.75
2023-05-01T00:28:28.359Z,99271.10
2023-05-01T00:31:20.360Z,99271.23
2023-05-01T00:34:12.610Z,99273.99
2023-05-01T00:37:04.644Z,99275.80
2023-05-01T00:39:56.916Z,99275.58
2023-05-01T00:42:49.315Z,99277.02
2023-05-01T00:45:44.284Z,99275.16
2023-05-01T00:48:36.708Z,99272.59
2023-05-01T00:51:30.206Z,99274.70
2023-05-01T00:54:23.095Z,99275.16
2023-05-01T00:57:05.277Z,99271.80
2023-05-01T00:59:57.473Z,99274.96
2023-05-01T01:02:50.054Z,99280.34
2023-05-01T01:05:47.675Z,99279.49
2023-05-01T01:08:45.222Z,99277.95
2023-05-01T01:11:44.036Z,99276.82
2023-05-01T01:14:43.017Z,99280.33
2023-05-01T01:17:46.776Z,99278.48
2023-05-01T01:20:46.383Z,99279.21
2023-05-01T01:24:04.235Z,99283.83
2023-05-01T01:27:31.820Z,99279.80
2023-05-01T01:31:15.289Z,99281.46
2023-05-01T01:34:14.399Z,99280.61
2023-05-01T01:37:15.526Z,99276.33
2023-05-01T01:40:12.642Z,99266.85
2023-05-01T01:43:08.100Z,99267.14
2023-05-01T01:46:04.262Z,99268.48
2023-05-01T01:48:59.298Z,99262.58
2023-05-01T01:51:53.016Z,99263.98
2023-05-01T01:54:54.030Z,99261.55
2023-05-01T01:57:48.155Z,99261.46
2023-05-01T02:00:41.941Z,99258.16
2023-05-01T02:03:34.637Z,99253.82
2023-05-01T02:06:28.800Z,99253.13
2023-05-01T02:09:23.065Z,99252.33
2023-05-01T02:12:17.796Z,99249.05
2023-05-01T02:15:12.776Z,99247.73
2023-05-01T02:18:06.491Z,99247.45
2023-05-01T02:21:00.803Z,99242.10
2023-05-01T02:23:51.283Z,99237.17
2023-05-01T02:26:47.879Z,99236.33
2023-05-01T02:29:39.820Z,99231.13
2023-05-01T02:32:32.069Z,99233.96
2023-05-01T02:35:24.162Z,99230.39
2023-05-01T02:38:16.989Z,99227.63
2023-05-01T02:41:09.894Z,99227.63
2023-05-01T02:44:06.594Z,99225.23
2023-05-01T02:46:59.843Z,99223.66
2023-05-01T02:49:52.630Z,99224.09
2023-05-01T02:52:45.836Z,99221.11
2023-05-01T02:55:38.056Z,99221.93
2023-05-01T02:58:33.854Z,99221.38
2023-05-01T03:01:26.266Z,99222.45
2023-05-01T03:04:18.397Z,99221.38
2023-05-01T03:07:10.478Z,99221.76
2023-05-01T03:09:44.951Z,99225.06
2023-05-01T03:12:37.071Z,99221.29
2023-05-01T03:15:29.054Z,99221.19
2023-05-01T03:18:21.078Z,99220.56
2023-05-01T03:21:13.673Z,99218.70
2023-05-01T03:24:06.178Z,99212.35
2023-05-01T03:26:58.197Z,99212.45
2023-05-01T03:29:50.458Z,99214.10
2023-05-01T03:32:42.533Z,99216.71
2023-05-01T03:35:34.654Z,99217.20
2023-05-01T03:38:27.197Z,99212.20
2023-05-01T03:41:19.258Z,99213.87
2023-05-01T03:44:11.255Z,99213.92
2023-05-01T03:47:03.324Z,99213.57
2023-05-01T03:49:55.835Z,99218.38
2023-05-01T03:52:48.064Z,99218.14
2023-05-01T03:55:40.662Z,99218.24
2023-05-01T03:58:32.656Z,99215.27
2023-05-01T04:01:24.679Z,99214.44
2023-05-01T04:04:16.869Z,99214.08
2023-05-01T04:07:09.351Z,99210.35
2023-05-01T04:10:01.331Z,99210.73
2023-05-01T04:12:53.520Z,99201.01
2023-05-01T04:15:48.058Z,99199.88
2023-05-01T04:18:40.024Z,99192.06
2023-05-01T04:21:32.051Z,99187.15
2023-05-01T04:24:24.075Z,99187.62
2023-05-01T04:27:16.127Z,99188.48
2023-05-01T04:30:09.647Z,99187.86
2023-05-01T04:33:01.885Z,99187.09
2023-05-01T04:35:54.009Z,99190.61
2023-05-01T04:38:46.008Z,99188.70
2023-05-01T04:41:38.113Z,99183.98
2023-05-01T04:44:30.627Z,99186.46
2023-05-01T04:47:22.556Z,99184.63
2023-05-01T04:50:14.776Z,99185.16
2023-05-01T04:53:06.811Z,99181.17
2023-05-01T04:55:58.789Z,99182.40
2023-05-01T04:58:50.896Z,99183.05
2023-05-01T05:01:42.938Z,99179.38
2023-05-01T05:04:34.985Z,99185.33
2023-05-01T05:07:27.201Z,99190.34
2023-05-01T05:10:19.282Z,99189.89
2023-05-01T05:13:11.330Z,99190.44
2023-05-01T05:16:03.467Z,99187.80
2023-05-01T05:18:58.487Z,99187.92
2023-05-01T05:21:50.475Z,99181.98
2023-05-01T05:24:42.519Z,99182.43
2023-05-01T05:27:37.940Z,99180.20
2023-05-01T05:30:30.204Z,99177.83
2023-05-01T05:33:22.767Z,99182.28
2023-05-01T05:36:14.760Z,99177.18
2023-05-01T05:39:06.792Z,99172.84
2023-05-01T05:42:00.755Z,99177.39
2023-05-01T05:44:53.036Z,99172.65
2023-05-01T05:47:45.082Z,99166.30
2023-05-01T05:50:37.233Z,99163.37
2023-05-01T05:53:29.338Z,99162.73
2023-05-01T05:56:21.327Z,99159.83
2023-05-01T05:59:14.467Z,99162.79
2023-05-01T06:02:08.590Z,99167.39
2023-05-01T06:05:00.629Z,99167.52
2023-05-01T06:07:52.638Z,99160.02
2023-05-01T06:10:46.364Z,99156.27
2023-05-01T06:13:37.707Z,99152.06
2023-05-01T06:16:29.931Z,99150.75
2023-05-01T06:19:22.233Z,99154.56
2023-05-01T06:22:14.234Z,99159.11
2023-05-01T06:25:07.814Z,99162.73
2023-05-01T06:28:00.019Z,99158.43
2023-05-01T06:30:51.988Z,99155.19
2023-05-01T06:33:43.923Z,99156.20
2023-05-01T06:36:36.048Z,99156.45
2023-05-01T06:39:28.029Z,99156.17
2023-05-01T06:42:21.465Z,99151.09
2023-05-01T06:45:13.688Z,99149.23
2023-05-01T06:48:06.301Z,99152.78
2023-05-01T06:50:58.553Z,99157.95
2023-05-01T06:53:50.529Z,99153.14
2023-05-01T06:56:43.144Z,99155.48
2023-05-01T06:59:35.126Z,99149.95
2023-05-01T07:02:27.188Z,99144.05
2023-05-01T07:05:19.602Z,99143.50
2023-05-01T07:08:11.672Z,99142.70
2023-05-01T07:11:03.818Z,99144.80
2023-05-01T07:13:56.186Z,99152.95
2023-05-01T07:16:48.238Z,99147.33
2023-05-01T07:19:40.270Z,99148.90
2023-05-01T07:22:32.287Z,99141.02
2023-05-01T07:25:24.996Z,99145.33
2023-05-01T07:28:18.104Z,99140.27
2023-05-01T07:31:12.110Z,99137.90
2023-05-01T07:34:04.143Z,99132.73
2023-05-01T07:36:56.395Z,99136.04
2023-05-01T07:39:48.394Z,99137.55
2023-05-01T07:42:40.458Z,99139.64
2023-05-01T07:45:32.515Z,99137.52
2023-05-01T07:48:24.777Z,99141.79
2023-05-01T07:51:18.398Z,99140.89
2023-05-01T07:54:08.646Z,99137.04
2023-05-01T07:57:01.767Z,99138.02
2023-05-01T07:59:57.680Z,99139.75
2023-05-01T08:02:49.942Z,99134.51
2023-05-01T08:05:43.408Z,99131.30
2023-05-01T08:08:35.397Z,99134.06
2023-05-01T08:11:29.395Z,99133.02
2023-05-01T08:14:17.603Z,99133.10
2023-05-01T08:17:09.730Z,99126.38
2023-05-01T08:20:04.391Z,99136.50
2023-05-01T08:22:56.418Z,99136.24
2023-05-01T08:25:51.076Z,99134.59
2023-05-01T08:28:43.267Z,99133.21
2023-05-01T08:31:37.741Z,99127.85
2023-05-01T08:34:29.852Z,99130.50
2023-05-01T08:37:21.881Z,99122.25
2023-05-01T08:40:15.835Z,99123.54
2023-05-01T08:43:07.800Z,99121.92
2023-05-01T08:46:01.771Z,99118.79
2023-05-01T08:48:57.780Z,99118.88
2023-05-01T08:51:52.957Z,99116.34
2023-05-01T08:54:47.613Z,99111.39
2023-05-01T08:57:40.476Z,99115.85
2023-05-01T09:00:34.333Z,99109.36
2023-05-01T09:03:28.187Z,99108.14
2023-05-01T09:06:21.318Z,99108.91
2023-05-01T09:09:13.322Z,99100.36
2023-05-01T09:12:13.822Z,99096.60
2023-05-01T09:15:07.183Z,99094.04
2023-05-01T09:18:03.244Z,99096.48
2023-05-01T09:20:56.253Z,99095.29
2023-05-01T09:23:51.337Z,99094.14
2023-05-01T09:26:43.662Z,99091.08
2023-05-01T09:29:35.352Z,99088.55
2023-05-01T09:32:28.934Z,99080.71
2023-05-01T09:35:21.049Z,99071.20
2023-05-01T09:38:17.866Z,99069.85
2023-05-01T09:41:10.879Z,99068.12
2023-05-01T09:44:03.136Z,99063.38
2023-05-01T09:47:04.483Z,99063.85
2023-05-01T09:49:59.646Z,99058.88
2023-05-01T09:52:53.619Z,99056.34
2023-05-01T09:56:02.967Z,99053.42
2023-05-01T09:58:56.084Z,99049.75
2023-05-01T10:01:50.088Z,99052.44
2023-05-01T10:04:43.207Z,99051.48
2023-05-01T10:07:35.791Z,99048.30
2023-05-01T10:10:27.972Z,99051.73
2023-05-01T10:13:20.297Z,99043.60
2023-05-01T10:16:31.166Z,99043.35
2023-05-01T10:19:23.437Z,99035.52
2023-05-01T10:22:16.238Z,99036.31
2023-05-01T10:25:11.401Z,99027.48
2023-05-01T10:28:06.463Z,99023.70
2023-05-01T10:30:49.793Z,99023.91
2023-05-01T10:33:43.567Z,99015.98
2023-05-01T10:36:42.020Z,99017.67
2023-05-01T10:39:35.383Z,99012.48
2023-05-01T10:42:28.888Z,99007.55
2023-05-01T10:45:35.242Z,99004.86
2023-05-01T10:48:58.224Z,98998.73
2023-05-01T10:52:03.897Z,99003.10
2023-05-01T10:55:16.653Z,98999.60
2023-05-01T10:58:08.708Z,99003.88
2023-05-01T11:01:33.565Z,99002.29
2023-05-01T11:04:51.127Z,98989.23
2023-05-01T11:07:43.585Z,98988.80
2023-05-01T11:10:35.850Z,98986.92
2023-05-01T11:14:02.693Z,98987.86
2023-05-01T11:16:55.145Z,98980.36
2023-05-01T11:19:50.275Z,98986.77
2023-05-01T11:22:47.321Z,98977.88
2023-05-01T11:25:39.375Z,98969.63
2023-05-01T11:28:35.346Z,98960.69
2023-05-01T11:31:29.113Z,98963.80
2023-05-01T11:34:21.267Z,98958.30
2023-05-01T11:37:13.279Z,98948.32
2023-05-01T11:40:06.199Z,98946.31
2023-05-01T11:43:06.908Z,98951.40
2023-05-01T11:46:03.982Z,98941.40
2023-05-01T11:48:57.234Z,98933.55
2023-05-01T11:51:59.033Z,98931.05
2023-05-01T11:54:51.349Z,98925.98
2023-05-01T11:57:51.681Z,98927.32
2023-05-01T12:00:44.882Z,98923.54
2023-05-01T12:03:45.653Z,98917.10
2023-05-01T12:06:44.565Z,98916.95
2023-05-01T12:09:36.724Z,98912.10
2023-05-01T12:12:28.778Z,98911.58
2023-05-01T12:15:21.112Z,98913.41
2023-05-01T12:18:15.364Z,98902.17
2023-05-01T12:21:20.112Z,98902.87
2023-05-01T12:24:14.998Z,98895.62
2023-05-01T12:27:08.953Z,98890.10
2023-05-01T12:30:00.937Z,98890.11
2023-05-01T12:32:53.216Z,98883.30
2023-05-01T12:35:35.123Z,98882.02
2023-05-01T12:38:27.088Z,98882.68
2023-05-01T12:41:01.901Z,98881.93
2023-05-01T12:43:53.891Z,98871.81
2023-05-01T12:46:47.351Z,98867.62
2023-05-01T12:49:40.613Z,98860.86
2023-05-01T12:52:33.375Z,98859.41
2023-05-01T12:55:26.110Z,98856.95
2023-05-01T12:58:18.796Z,98860.95
2023-05-01T13:01:10.817Z,98854.55
2023-05-01T13:04:03.076Z,98848.70
2023-05-01T13:06:56.486Z,98849.00
2023-05-01T13:09:58.548Z,98843.45
2023-05-01T13:12:52.034Z,98840.83
2023-05-01T13:15:44.919Z,98837.48
2023-05-01T13:18:57.340Z,98834.08
2023-05-01T13:21:52.221Z,98832.24
2023-05-01T13:24:45.001Z,98826.06
2023-05-01T13:27:37.878Z,98819.64
2023-05-01T13:30:35.801Z,98818.92
2023-05-01T13:33:29.217Z,98821.25
2023-05-01T13:36:26.677Z,98813.66
2023-05-01T13:39:21.993Z,98806.73
2023-05-01T13:42:21.667Z,98807.73
2023-05-01T13:45:19.689Z,98808.80
2023-05-01T13:48:12.589Z,98802.83
2023-05-01T13:51:07.195Z,98801.20
2023-05-01T13:53:59.206Z,98798.42
2023-05-01T13:56:51.191Z,98792.00
2023-05-01T13:59:44.544Z,98790.09
2023-05-01T14:02:38.324Z,98790.77
2023-05-01T14:05:30.411Z,98783.48
2023-05-01T14:08:28.551Z,98781.27
2023-05-01T14:11:21.102Z,98774.83
2023-05-01T14:14:13.345Z,98773.29
2023-05-01T14:17:05.359Z,98767.64
2023-05-01T14:19:57.417Z,98766.12
2023-05-01T14:22:51.774Z,98762.59
2023-05-01T14:25:45.047Z,98762.71
2023-05-01T14:28:57.059Z,98759.09
2023-05-01T14:31:49.072Z,98754.52
2023-05-01T14:34:43.700Z,98753.61
2023-05-01T14:37:35.822Z,98749.01
2023-05-01T14:40:29.065Z,98743.98
2023-05-01T14:43:22.636Z,98734.30
2023-05-01T14:46:17.063Z,98733.71
2023-05-01T14:49:09.157Z,98733.38
2023-05-01T14:52:01.192Z,98730.42
2023-05-01T14:54:53.484Z,98724.75
2023-05-01T14:57:48.506Z,98724.84
2023-05-01T15:00:40.497Z,98724.39
2023-05-01T15:03:32.871Z,98721.27
2023-05-01T15:06:25.692Z,98716.46
2023-05-01T15:09:17.684Z,98719.35
2023-05-01T15:12:10.198Z,98717.15
2023-05-01T15:15:02.391Z,98717.20
2023-05-01T15:17:54.388Z,98716.89
2023-05-01T15:20:26.950Z,98713.38
2023-05-01T15:23:19.003Z,98708.42
2023-05-01T15:26:10.946Z,98708.01
2023-05-01T15:29:03.458Z,98705.73
2023-05-01T15:32:08.205Z,98704.33
2023-05-01T15:35:03.642Z,98700.48
2023-05-01T15:37:56.519Z,98697.04
2023-05-01T15:40:49.863Z,98695.67
2023-05-01T15:43:24.747Z,98691.11
2023-05-01T15:46:18.245Z,98692.10
2023-05-01T15:49:11.551Z,98683.83
2023-05-01T15:52:03.810Z,98684.23
2023-05-01T15:54:56.272Z,98682.92
2023-05-01T15:57:30.886Z,98682.17
2023-05-01T16:00:23.055Z,98678.25
2023-05-01T16:03:16.153Z,98680.75
2023-05-01T16:06:09.486Z,98675.28
2023-05-01T16:09:01.999Z,98678.20
2023-05-01T16:11:54.006Z,98678.33
2023-05-01T16:14:46.423Z,98681.36
2023-05-01T16:17:43.641Z,98687.52
2023-05-01T16:20:42.308Z,98689.64
2023-05-01T16:23:34.414Z,98691.18
2023-05-01T16:26:28.756Z,98689.50
2023-05-01T16:29:21.527Z,98692.61
2023-05-01T16:32:14.063Z,98690.75
2023-05-01T16:35:07.174Z,98691.62
2023-05-01T16:38:00.428Z,98686.83
2023-05-01T16:40:52.480Z,98687.53
2023-05-01T16:43:44.487Z,98679.62
2023-05-01T16:46:36.551Z,98682.72
2023-05-01T16:49:29.398Z,98675.59
2023-05-01T16:52:21.485Z,98680.72
2023-05-01T16:55:13.834Z,98678.69
2023-05-01T16:58:06.836Z,98679.07
2023-05-01T17:00:59.505Z,98681.77
2023-05-01T17:03:40.566Z,98678.43
2023-05-01T17:06:32.681Z,98683.17
2023-05-01T17:09:24.760Z,98681.95
2023-05-01T17:12:17.587Z,98676.95
2023-05-01T17:15:11.491Z,98681.90
2023-05-01T17:18:03.697Z,98682.25
2023-05-01T17:20:38.518Z,98684.96
2023-05-01T17:23:30.852Z,98681.90
2023-05-01T17:26:22.889Z,98678.29
2023-05-01T17:29:15.207Z,98677.61
2023-05-01T17:32:07.811Z,98675.56
2023-05-01T17:35:00.155Z,98671.58
2023-05-01T17:37:52.425Z,98673.94
2023-05-01T17:40:44.643Z,98674.90
2023-05-01T17:43:36.600Z,98673.55
2023-05-01T17:46:28.720Z,98670.95
2023-05-01T17:49:20.736Z,98670.26
2023-05-01T17:52:12.753Z,98670.84
2023-05-01T17:55:05.566Z,98674.59
2023-05-01T17:57:57.492Z,98668.59
2023-05-01T18:00:38.460Z,98676.01
2023-05-01T18:03:32.444Z,98678.94
2023-05-01T18:06:23.278Z,98677.91
2023-05-01T18:09:15.298Z,98680.02
2023-05-01T18:12:07.761Z,98675.10
2023-05-01T18:14:59.948Z,98679.88
2023-05-01T18:17:52.011Z,98677.15
2023-05-01T18:20:44.075Z,98676.23
2023-05-01T18:23:36.955Z,98676.13
2023-05-01T18:26:29.404Z,98674.74
2023-05-01T18:29:22.766Z,98677.52
2023-05-01T18:32:14.918Z,98678.97
2023-05-01T18:35:08.400Z,98679.63
2023-05-01T18:38:00.503Z,98681.86
2023-05-01T18:40:32.387Z,98687.86
2023-05-01T18:43:24.362Z,98684.52
2023-05-01T18:46:16.452Z,98674.17
2023-05-01T18:49:08.624Z,98677.30
2023-05-01T18:52:00.566Z,98677.33
2023-05-01T18:54:52.625Z,98681.55
2023-05-01T18:57:46.545Z,98680.77
2023-05-01T19:00:38.623Z,98679.04
2023-05-01T19:03:30.651Z,98677.22
2023-05-01T19:06:06.007Z,98680.50
2023-05-01T19:08:58.328Z,98678.02
2023-05-01T19:11:51.323Z,98674.98
2023-05-01T19:14:43.312Z,98675.92
2023-05-01T19:17:17.963Z,98676.20
2023-05-01T19:20:11.769Z,98672.61
2023-05-01T19:23:03.745Z,98675.22
2023-05-01T19:25:55.731Z,98675.39
2023-05-01T19:28:47.828Z,98670.31
2023-05-01T19:31:39.833Z,98668.05
2023-05-01T19:34:31.933Z,98666.83
2023-05-01T19:37:23.958Z,98670.08
2023-05-01T19:40:16.940Z,98667.01
2023-05-01T19:43:08.911Z,98667.12
2023-05-01T19:46:00.954Z,98666.80
2023-05-01T19:48:53.183Z,98668.11
2023-05-01T19:51:45.832Z,98664.91
2023-05-01T19:54:38.027Z,98669.44
2023-05-01T19:57:29.996Z,98668.98
2023-05-01T20:00:22.507Z,98667.70
2023-05-01T20:03:15.637Z,98669.06
2023-05-01T20:06:07.889Z,98664.52
2023-05-01T20:08:59.907Z,98665.21
2023-05-01T20:11:52.267Z,98664.58
2023-05-01T20:14:44.267Z,98662.17
2023-05-01T20:17:36.333Z,98663.89
2023-05-01T20:20:28.314Z,98665.63
2023-05-01T20:23:23.282Z,98666.20
2023-05-01T20:26:15.261Z,98668.92
2023-05-01T20:29:44.699Z,98666.48
2023-05-01T20:32:36.775Z,98665.89
2023-05-01T20:35:28.791Z,98669.21
2023-05-01T20:38:21.595Z,98668.98
2023-05-01T20:41:13.547Z,98672.90
2023-05-01T20:44:06.884Z,98677.16
2023-05-01T20:46:58.921Z,98676.39
2023-05-01T20:49:50.876Z,98682.83
2023-05-01T20:52:42.894Z,98683.13
2023-05-01T20:55:34.859Z,98686.74
2023-05-01T20:58:26.906Z,98692.56
2023-05-01T21:01:18.920Z,98692.04
2023-05-01T21:04:11.151Z,98696.04
2023-05-01T21:07:03.194Z,98699.24
2023-05-01T21:09:55.139Z,98703.11
2023-05-01T21:12:47.135Z,98706.88
2023-05-01T21:15:43.200Z,98710.72
2023-05-01T21:18:36.280Z,98710.00
2023-05-01T21:21:28.974Z,98716.66
2023-05-01T21:24:24.642Z,98713.50
2023-05-01T21:27:16.622Z,98713.15
2023-05-01T21:30:14.893Z,98714.96
2023-05-01T21:33:09.258Z,98714.44
2023-05-01T21:35:59.670Z,98717.29
2023-05-01T21:38:51.618Z,98719.03
2023-05-01T21:41:44.458Z,98716.34
2023-05-01T21:44:36.478Z,98722.31
2023-05-01T21:47:19.831Z,98720.89
2023-05-01T21:50:15.893Z,98722.83
2023-05-01T21:53:08.408Z,98721.67
2023-05-01T21:56:00.653Z,98723.38
2023-05-01T21:58:52.736Z,98721.39
2023-05-01T22:01:45.377Z,98722.95
2023-05-01T22:04:38.057Z,98721.49
2023-05-01T22:07:30.102Z,98725.94
2023-05-01T22:10:22.095Z,98721.83
2023-05-01T22:13:14.058Z,98721.51
2023-05-01T22:16:06.509Z,98726.91
2023-05-01T22:18:58.495Z,98727.39
2023-05-01T22:21:50.748Z,98726.09
2023-05-01T22:24:42.707Z,98728.23
2023-05-01T22:27:34.854Z,98723.50
2023-05-01T22:30:26.979Z,98727.70
2023-05-01T22:33:18.968Z,98728.80
2023-05-01T22:36:11.185Z,98728.94
2023-05-01T22:39:03.848Z,98731.83
2023-05-01T22:41:55.892Z,98725.42
2023-05-01T22:44:48.206Z,98731.00
2023-05-01T22:47:40.216Z,98736.33
2023-05-01T22:50:32.174Z,98733.55
2023-05-01T22:53:24.152Z,98737.19
2023-05-01T22:56:16.277Z,98734.61
2023-05-01T22:59:08.258Z,98734.55
2023-05-01T23:02:02.408Z,98731.86
2023-05-01T23:04:54.552Z,98732.69
2023-05-01T23:07:46.683Z,98731.73
2023-05-01T23:10:43.044Z,98729.73
2023-05-01T23:13:34.994Z,98732.29
2023-05-01T23:16:27.218Z,98736.09
2023-05-01T23:19:25.196Z,98733.71
2023-05-01T23:22:17.921Z,98732.90
2023-05-01T23:25:15.959Z,98729.79
2023-05-01T23:28:08.378Z,98729.02
2023-05-01T23:31:02.503Z,98723.42
2023-05-01T23:33:54.930Z,98721.95
2023-05-01T23:36:48.452Z,98715.62
2023-05-01T23:39:40.437Z,98713.80
2023-05-01T23:42:32.689Z,98713.84
2023-05-01T23:45:25.429Z,98709.93
2023-05-01T23:48:17.573Z,98711.70
2023-05-01T23:51:09.646Z,98708.70
2023-05-01T23:54:04.196Z,98707.36
2023-05-01T23:56:56.333Z,98704.48
2023-05-01T23:59:48.344Z,98704.14
